Modesto City Co-Harry Sham Field Modesto US
ICAO: KMOD
IATA: MOD
Category: Medium
Scheduled Services: Yes

Elevation: 97 ft
TransAlt. 18000 ft.

Airport Communications:
NORCAL APP/DEP:36.32
NORCAL APP/DEP:120.95
ASOS:127.7
ATIS:127.7
CTAF:125.3
GND:121.7
RANCHO RDO:114.6
TWR:125.3
UNICOM:122.95

KMOD Zoom In..

Runways:

(A) RW 10L length 5904 ft width 150 ft
---- / hdg 108

(B) RW 10R length 3464 ft width 100 ft
---- / hdg 108

(C) RW 28L length 3464 ft width 100 ft
---- / hdg 288

(D) RW 28R length 5904 ft width 150 ft
ILS 111.90 / hdg 288

Location; KMOD
Day. 06 / Time. 05.53 Zulu
* Altimeter: 29.87
* Temperature: 18° c. 64.4°f.
* Wind from: 350° Speed 07 kn.
Dewpoint: 12° c.
Visibility: 10 Statute Miles.
Clouds: Clear (automated report).

KMOD 060553Z AUTO 35007KT 10SM CLR 18/12 A2987 RMK AO2 SLP114 T01780122 10278 20178 51013

Going to: --> -->


Wind From 350°
Speed 07 kn.

 
 
jpsmedia worldairports.se 2020   terms of use